Time;durP1;ratioP1;P1;durP2;ratioP2;P2;SDS_P1;SDS_P2;PMS_P1;PMS_P2;Temp;Humidity;BMP_temperature;BMP_pressure;BME280_temperature;BME280_humidity;BME280_pressure;Samples;Min_cycle;Max_cycle;Signal;HPM_P1;HPM_P2
2021/05/12 00:01:11;;;;;;;8.02;3.65;;;;;;;19.92;47.64;99029.69;4468374;32;32885;-86
2021/05/12 00:03:39;;;;;;;5.75;3.35;;;;;;;19.87;47.94;99026.41;4468447;32;33762;-86
2021/05/12 00:06:07;;;;;;;5.53;3.75;;;;;;;19.75;48.18;99029.66;4468121;32;34479;-87
2021/05/12 00:08:34;;;;;;;7.53;3.45;;;;;;;19.84;48.50;99023.94;4481250;32;33989;-87
2021/05/12 00:11:02;;;;;;;5.28;3.47;;;;;;;19.78;48.37;99032.16;4481810;32;33589;-87
2021/05/12 00:13:30;;;;;;;8.50;3.80;;;;;;;19.68;48.79;99028.25;4467955;32;35380;-87
2021/05/12 00:15:58;;;;;;;6.97;3.80;;;;;;;19.57;49.14;99021.72;4481234;32;34388;-86
2021/05/12 00:18:33;;;;;;;5.95;3.92;;;;;;;19.54;49.04;99015.72;4481177;32;34280;-86
2021/05/12 00:21:02;;;;;;;5.95;3.90;;;;;;;19.54;49.02;99015.72;4480730;32;33404;-87
2021/05/12 00:23:42;;;;;;;8.13;3.90;;;;;;;19.40;49.36;99010.25;4481090;32;34581;-87
2021/05/12 00:26:09;;;;;;;6.75;3.67;;;;;;;19.34;49.25;99007.91;4481111;32;34442;-86
2021/05/12 00:28:37;;;;;;;12.95;4.25;;;;;;;19.41;49.39;99010.22;4467766;32;33500;-86
2021/05/12 00:31:05;;;;;;;7.75;3.47;;;;;;;19.50;49.18;99012.41;4480831;32;33739;-87
2021/05/12 00:33:33;;;;;;;6.20;3.53;;;;;;;19.58;49.16;99009.38;4467972;32;34505;-87
2021/05/12 00:36:01;;;;;;;5.82;3.58;;;;;;;19.51;49.32;99008.84;4468050;32;34446;-87
2021/05/12 00:38:28;;;;;;;5.22;3.60;;;;;;;19.58;49.20;99010.25;4479407;32;34118;-86
2021/05/12 00:40:56;;;;;;;6.00;3.78;;;;;;;19.55;49.24;99013.03;4470203;32;34609;-87
2021/05/12 00:43:24;;;;;;;4.65;3.53;;;;;;;19.33;49.53;99007.03;4470250;32;33895;-86
2021/05/12 00:45:51;;;;;;;4.37;3.25;;;;;;;19.32;49.72;98996.56;4457659;32;34426;-87
2021/05/12 00:48:19;;;;;;;5.05;3.80;;;;;;;19.28;49.68;98998.50;4457396;32;34208;-87
2021/05/12 00:50:47;;;;;;;3.70;3.12;;;;;;;19.41;49.32;98994.37;4457833;32;33628;-87
2021/05/12 00:53:15;;;;;;;4.57;3.42;;;;;;;19.31;49.81;98998.34;4470254;32;35501;-87
2021/05/12 00:55:42;;;;;;;7.35;3.50;;;;;;;19.32;49.50;98993.94;4457608;32;34358;-87
2021/05/12 00:58:10;;;;;;;5.07;3.25;;;;;;;19.34;49.37;98992.94;4457286;32;33519;-87
2021/05/12 01:00:38;;;;;;;5.00;3.45;;;;;;;19.34;49.17;98992.94;4457104;32;33289;-87
2021/05/12 01:03:05;;;;;;;4.32;2.92;;;;;;;19.36;49.15;98996.38;4457152;32;33813;-87
2021/05/12 01:05:33;;;;;;;6.45;3.78;;;;;;;19.23;48.98;98987.31;4457317;32;34485;-87
2021/05/12 01:08:03;;;;;;;4.95;3.40;;;;;;;19.23;49.31;98992.59;4457364;32;33486;-87
2021/05/12 01:10:34;;;;;;;6.60;3.00;;;;;;;19.26;48.87;98994.22;4457174;32;33240;-87
2021/05/12 01:13:03;;;;;;;4.20;3.33;;;;;;;19.23;48.94;98989.94;4457116;32;33847;-87
2021/05/12 01:15:31;;;;;;;7.95;3.58;;;;;;;19.21;49.22;98986.53;4457123;32;34858;-87
2021/05/12 01:18:12;;;;;;;3.65;3.35;;;;;;;19.08;49.20;98984.56;4444527;32;34778;-87
2021/05/12 01:20:58;;;;;;;6.15;3.40;;;;;;;19.10;49.45;98988.84;4470015;32;33092;-87
2021/05/12 01:23:29;;;;;;;5.15;3.15;;;;;;;19.09;49.38;98981.84;4444449;32;34538;-87
2021/05/12 01:25:58;;;;;;;4.93;3.30;;;;;;;19.01;49.27;98981.38;4457096;32;33644;-87
2021/05/12 01:28:29;;;;;;;7.03;3.58;;;;;;;19.00;49.18;98984.91;4456864;32;33908;-87
2021/05/12 01:30:57;;;;;;;4.53;3.08;;;;;;;19.02;49.07;98977.78;4457542;32;33022;-87
2021/05/12 01:33:26;;;;;;;6.32;3.45;;;;;;;19.01;48.76;98962.91;4470274;32;33517;-87
2021/05/12 01:35:54;;;;;;;5.43;3.00;;;;;;;18.88;49.31;98973.19;4457338;32;34808;-87
2021/05/12 01:38:23;;;;;;;6.25;3.17;;;;;;;19.08;48.09;98955.56;4457589;32;34612;-86
2021/05/12 01:40:51;;;;;;;7.30;3.50;;;;;;;19.10;48.38;98964.25;4457038;32;33322;-86
2021/05/12 01:43:19;;;;;;;5.93;3.33;;;;;;;18.95;48.76;98963.19;4456800;32;33506;-86
2021/05/12 01:45:48;;;;;;;5.95;3.33;;;;;;;18.97;48.04;98958.69;4457222;32;33872;-86
2021/05/12 01:48:16;;;;;;;9.73;2.75;;;;;;;18.94;48.64;98957.06;4457106;32;34231;-88
2021/05/12 01:50:45;;;;;;;3.87;3.37;;;;;;;18.86;48.11;98958.38;4456251;32;33190;-88
2021/05/12 01:53:14;;;;;;;5.22;3.58;;;;;;;18.87;48.43;98950.38;4470070;32;35104;-88
2021/05/12 01:55:42;;;;;;;4.07;3.40;;;;;;;18.90;48.69;98952.00;4457301;32;35351;-88
2021/05/12 01:58:09;;;;;;;5.18;3.30;;;;;;;18.82;48.86;98944.50;4457160;32;34026;-88
2021/05/12 02:00:42;;;;;;;6.78;3.10;;;;;;;18.80;48.45;98950.75;4457153;32;34411;-89
2021/05/12 02:03:11;;;;;;;4.93;3.58;;;;;;;18.77;48.31;98943.84;4457362;32;33871;-88
2021/05/12 02:05:41;;;;;;;8.95;3.55;;;;;;;18.80;49.02;98937.59;4457219;32;34331;-88
2021/05/12 02:08:11;;;;;;;4.35;2.72;;;;;;;18.71;48.51;98933.59;4444283;32;33473;-88
2021/05/12 02:10:41;;;;;;;8.55;3.00;;;;;;;18.73;48.38;98936.16;4457141;32;33110;-88
2021/05/12 02:13:10;;;;;;;7.00;3.00;;;;;;;18.70;47.91;98925.75;4457016;32;33584;-88
2021/05/12 02:15:40;;;;;;;6.72;3.08;;;;;;;18.73;48.44;98931.72;4457247;32;34065;-88
2021/05/12 02:18:11;;;;;;;5.00;3.62;;;;;;;18.72;48.34;98931.81;4470119;32;33821;-88
2021/05/12 02:20:40;;;;;;;6.85;3.00;;;;;;;18.65;48.28;98922.50;4469909;32;34310;-88
2021/05/12 02:23:12;;;;;;;5.40;2.87;;;;;;;18.66;48.05;98926.84;4469858;32;34735;-88
2021/05/12 02:25:41;;;;;;;3.75;2.90;;;;;;;18.64;48.21;98921.63;4470003;32;35768;-88
2021/05/12 02:28:10;;;;;;;4.93;3.45;;;;;;;18.60;48.46;98924.47;4469490;32;33939;-88
2021/05/12 02:30:38;;;;;;;7.82;3.35;;;;;;;18.58;48.58;98915.81;4456897;32;33402;-88
2021/05/12 02:33:09;;;;;;;5.62;3.20;;;;;;;18.61;48.55;98921.75;4456952;32;33140;-88
2021/05/12 02:35:39;;;;;;;3.70;2.90;;;;;;;18.45;48.60;98919.88;4469698;32;34427;-88
2021/05/12 02:38:07;;;;;;;7.57;2.97;;;;;;;18.46;48.49;98914.59;4456919;32;33258;-88
2021/05/12 02:40:37;;;;;;;5.85;3.12;;;;;;;18.46;48.65;98917.22;4444460;32;34195;-88
2021/05/12 02:43:08;;;;;;;3.67;2.65;;;;;;;18.39;48.76;98917.53;4469729;32;33941;-88
2021/05/12 02:45:37;;;;;;;4.93;2.95;;;;;;;18.50;48.46;98915.28;4470610;32;33981;-88
2021/05/12 02:48:06;;;;;;;7.25;3.33;;;;;;;18.39;48.86;98925.44;4431225;32;32975;-88
2021/05/12 02:50:36;;;;;;;9.65;3.40;;;;;;;18.32;48.74;98924.00;4469658;32;33264;-88
2021/05/12 02:53:06;;;;;;;3.55;2.95;;;;;;;18.30;48.74;98915.31;4456726;32;33530;-88
2021/05/12 02:55:35;;;;;;;8.90;3.03;;;;;;;18.22;48.68;98920.94;4471076;32;34613;-88
2021/05/12 02:58:05;;;;;;;7.50;2.90;;;;;;;18.22;48.98;98918.28;4456662;32;33116;-89
2021/05/12 03:00:36;;;;;;;4.87;2.90;;;;;;;18.21;48.90;98922.69;4471338;32;33235;-88
2021/05/12 03:03:08;;;;;;;5.07;2.70;;;;;;;18.16;49.21;98924.69;4443909;32;34068;-88
2021/05/12 03:05:37;;;;;;;3.75;2.65;;;;;;;18.11;49.02;98929.28;4431694;32;35388;-88
2021/05/12 03:08:06;;;;;;;3.90;2.80;;;;;;;18.03;48.73;98934.06;4457446;32;34674;-95
2021/05/12 03:10:58;;;;;;;6.07;2.83;;;;;;;17.97;48.43;98941.37;4362024;32;32927;-95
2021/05/12 03:13:50;;;;;;;9.55;3.50;;;;;;;17.99;48.99;98937.75;4350291;32;33035;-94
2021/05/12 03:16:43;;;;;;;5.07;2.67;;;;;;;17.96;48.97;98924.72;4359754;32;33941;-93
2021/05/12 03:19:26;;;;;;;5.60;3.00;;;;;;;18.02;49.05;98931.47;4378693;32;33207;-93
2021/05/12 03:22:20;;;;;;;6.60;2.85;;;;;;;17.97;49.12;98923.78;4366936;32;33375;-93
2021/05/12 03:25:00;;;;;;;4.65;2.97;;;;;;;18.02;49.18;98921.81;4370800;32;33236;-94
2021/05/12 03:27:43;;;;;;;5.97;3.15;;;;;;;17.94;49.41;98926.56;4326310;33;34134;-94
2021/05/12 03:30:37;;;;;;;6.30;2.97;;;;;;;17.96;49.37;98922.09;4339538;33;33595;-93
2021/05/12 03:33:16;;;;;;;5.30;3.10;;;;;;;17.87;49.73;98927.75;4358320;32;32680;-93
2021/05/12 03:36:14;;;;;;;6.70;2.75;;;;;;;17.88;50.02;98923.31;4389742;32;34216;-93
2021/05/12 03:38:54;;;;;;;3.60;2.65;;;;;;;17.86;49.82;98926.03;4345951;32;33900;-93
2021/05/12 03:41:46;;;;;;;7.30;3.03;;;;;;;17.86;49.69;98926.03;4349205;32;33576;-93
2021/05/12 03:44:27;;;;;;;4.60;3.10;;;;;;;17.87;49.83;98930.38;4359746;32;32716;-93
2021/05/12 03:47:22;;;;;;;5.72;3.08;;;;;;;18.03;49.30;98922.66;4317741;33;34779;-94
2021/05/12 03:50:07;;;;;;;4.60;3.22;;;;;;;18.16;48.61;98914.16;4356894;32;34114;-92
2021/05/12 03:53:01;;;;;;;7.93;2.80;;;;;;;18.12;48.88;98907.31;4329114;33;32601;-92
2021/05/12 03:55:41;;;;;;;4.90;2.97;;;;;;;18.27;48.26;98904.00;4368636;32;33169;-92
2021/05/12 03:58:34;;;;;;;4.35;2.55;;;;;;;18.42;48.20;98909.50;4346607;33;33362;-91
2021/05/12 04:01:17;;;;;;;5.40;2.67;;;;;;;18.44;47.85;98908.50;4348453;32;33717;-91
2021/05/12 04:04:23;;;;;;;3.42;2.20;;;;;;;18.43;47.62;98901.53;4353105;32;34315;-92
2021/05/12 04:07:02;;;;;;;5.97;2.78;;;;;;;18.60;46.89;98906.91;4331911;33;33095;-91
2021/05/12 04:10:04;;;;;;;7.78;2.70;;;;;;;18.68;46.38;98901.28;4358498;32;33417;-93
2021/05/12 04:12:44;;;;;;;7.40;3.05;;;;;;;18.77;45.93;98911.37;4379633;32;33879;-92
2021/05/12 04:15:38;;;;;;;7.97;3.20;;;;;;;18.88;45.51;98914.34;4362453;32;33971;-93
2021/05/12 04:18:27;;;;;;;4.40;2.70;;;;;;;19.01;45.41;98912.84;4364808;32;33493;-93
2021/05/12 04:21:31;;;;;;;4.03;2.40;;;;;;;19.16;44.94;98909.47;4401988;32;34203;-92
2021/05/12 04:24:19;;;;;;;5.07;2.70;;;;;;;19.24;45.03;98912.59;4394566;32;34252;-92
2021/05/12 04:27:21;;;;;;;5.25;2.62;;;;;;;19.30;44.62;98914.91;4393021;32;34305;-92
2021/05/12 04:30:12;;;;;;;7.57;2.62;;;;;;;19.43;44.58;98912.56;4396696;32;33584;-92
2021/05/12 04:33:16;;;;;;;5.18;2.60;;;;;;;19.43;44.73;98907.28;4375466;32;34365;-90
2021/05/12 04:35:44;;;;;;;4.18;2.85;;;;;;;19.76;43.86;98910.00;4394160;32;34800;-91
2021/05/12 04:38:32;;;;;;;5.28;2.83;;;;;;;19.51;44.35;98911.25;4352914;32;33920;-91
2021/05/12 04:41:00;;;;;;;7.05;3.28;;;;;;;19.67;43.89;98911.31;4364501;32;33505;-92
2021/05/12 04:44:10;;;;;;;6.50;3.20;;;;;;;19.89;43.45;98900.53;4330725;33;33904;-91
2021/05/12 04:46:39;;;;;;;6.82;3.40;;;;;;;19.79;44.05;98908.06;4332330;33;33533;-91
2021/05/12 04:49:19;;;;;;;6.53;3.10;;;;;;;19.95;43.37;98910.75;4321936;33;32704;-92
2021/05/12 04:51:56;;;;;;;10.30;2.90;;;;;;;19.82;43.28;98914.97;4320492;33;33381;-90
2021/05/12 04:54:32;;;;;;;7.03;3.00;;;;;;;19.99;43.05;98917.59;4321320;33;34071;-92
2021/05/12 04:57:04;;;;;;;9.20;3.83;;;;;;;20.02;43.33;98907.72;4320201;33;33994;-90
2021/05/12 04:59:33;;;;;;;5.87;3.12;;;;;;;20.25;43.02;98899.47;4320005;33;33339;-89
2021/05/12 05:02:03;;;;;;;8.05;3.22;;;;;;;20.23;42.64;98905.75;4332455;33;32761;-93
2021/05/12 05:04:31;;;;;;;6.03;3.42;;;;;;;20.33;42.54;98909.63;4320391;33;33557;-90
2021/05/12 05:07:15;;;;;;;5.43;3.12;;;;;;;20.45;42.02;98911.59;4320423;33;36022;-90
2021/05/12 05:09:43;;;;;;;6.72;2.90;;;;;;;20.64;42.27;98907.03;4320033;33;33311;-90
2021/05/12 05:12:11;;;;;;;6.30;2.60;;;;;;;20.74;42.23;98907.38;4332414;33;32813;-90
2021/05/12 05:14:47;;;;;;;5.43;2.62;;;;;;;21.01;41.79;98911.13;4321042;33;33442;-90
2021/05/12 05:17:16;;;;;;;4.93;1.73;;;;;;;20.82;41.00;98907.81;4319934;33;35317;-89
2021/05/12 05:19:44;;;;;;;5.70;2.28;;;;;;;20.94;39.86;98902.66;4319664;33;34322;-90
2021/05/12 05:22:14;;;;;;;6.75;2.15;;;;;;;21.09;39.18;98897.47;4319689;33;34202;-90
2021/05/12 05:24:42;;;;;;;7.25;2.00;;;;;;;21.08;38.39;98899.31;4318985;33;33939;-89
2021/05/12 05:27:10;;;;;;;10.82;2.22;;;;;;;21.29;38.14;98891.91;4324762;33;35301;-90
2021/05/12 05:29:38;;;;;;;7.57;1.70;;;;;;;21.38;38.01;98884.31;4326955;33;34214;-89
2021/05/12 05:32:12;;;;;;;4.15;1.80;;;;;;;21.67;37.33;98884.38;4319355;33;33277;-90
2021/05/12 05:35:12;;;;;;;4.12;1.65;;;;;;;21.76;37.11;98883.81;4300757;33;34018;-91
2021/05/12 05:37:58;;;;;;;5.12;1.90;;;;;;;21.69;37.79;98880.69;4319549;33;34645;-91
2021/05/12 05:40:57;;;;;;;6.35;2.03;;;;;;;21.83;37.58;98883.38;4306095;33;32819;-91
2021/05/12 05:43:44;;;;;;;5.65;1.92;;;;;;;21.94;37.34;98883.59;4320950;33;34271;-89
2021/05/12 05:46:33;;;;;;;6.37;2.08;;;;;;;21.99;36.35;98889.47;4316931;33;33277;-88
2021/05/12 05:49:19;;;;;;;5.22;1.95;;;;;;;22.16;35.95;98886.66;4332178;33;34141;-89
2021/05/12 05:52:06;;;;;;;9.23;1.90;;;;;;;22.47;36.87;98885.59;4326542;33;34718;-89
2021/05/12 05:55:08;;;;;;;5.85;2.30;;;;;;;22.49;35.92;98889.00;4304492;33;33670;-91
2021/05/12 05:57:56;;;;;;;5.35;2.33;;;;;;;22.55;35.17;98896.56;4295266;33;32188;-90
2021/05/12 06:00:54;;;;;;;5.87;2.28;;;;;;;22.70;34.90;98889.50;4286994;33;33753;-91
2021/05/12 06:03:33;;;;;;;3.85;1.70;;;;;;;23.04;34.16;98894.31;4337873;33;33262;-91
2021/05/12 06:06:15;;;;;;;5.75;1.98;;;;;;;23.07;34.15;98885.31;4329786;33;33427;-91
2021/05/12 06:09:02;;;;;;;4.25;2.03;;;;;;;23.16;34.13;98887.34;4312864;33;33895;-91
2021/05/12 06:11:48;;;;;;;11.30;2.33;;;;;;;23.28;34.80;98887.41;4305321;33;34734;-92
2021/05/12 06:14:36;;;;;;;3.72;1.95;;;;;;;;;;4315423;33;33729;-92
2021/05/12 06:17:21;;;;;;;7.10;1.83;;;;;;;23.30;34.63;98884.62;4323920;33;33574;-92
2021/05/12 06:20:14;;;;;;;8.75;2.03;;;;;;;23.58;34.37;98878.41;4292963;33;34984;-91
2021/05/12 06:23:04;;;;;;;4.78;1.90;;;;;;;23.52;33.55;98879.66;4306364;33;35357;-90
2021/05/12 06:26:23;;;;;;;11.55;2.90;;;;;;;23.68;33.17;98882.13;4291538;33;34823;-91
2021/05/12 06:29:11;;;;;;;10.98;2.05;;;;;;;23.41;33.85;98888.34;4326090;33;34678;-92
2021/05/12 06:32:15;;;;;;;7.45;2.35;;;;;;;23.60;33.65;98887.97;4304174;33;32999;-92
2021/05/12 06:35:02;;;;;;;6.75;2.35;;;;;;;23.46;33.97;98885.38;4311153;33;33307;-91
2021/05/12 06:37:51;;;;;;;11.65;1.92;;;;;;;23.55;33.78;98890.94;4307055;33;33107;-91
2021/05/12 06:40:23;;;;;;;7.43;2.22;;;;;;;23.73;33.79;98899.44;4334671;33;33416;-92
2021/05/12 06:43:13;;;;;;;6.50;2.10;;;;;;;23.62;33.82;98901.13;4320759;33;34756;-92
2021/05/12 06:45:41;;;;;;;3.65;1.98;;;;;;;23.74;33.76;98900.28;4334042;33;33791;-91
2021/05/12 06:48:10;;;;;;;8.85;2.78;;;;;;;23.77;33.67;98903.56;4346370;33;33182;-92
2021/05/12 06:50:38;;;;;;;3.95;1.90;;;;;;;23.82;33.90;98897.97;4346019;33;33347;-90
2021/05/12 06:53:06;;;;;;;10.10;2.60;;;;;;;24.00;33.18;98904.69;4358883;32;33221;-88
2021/05/12 06:55:40;;;;;;;5.30;1.95;;;;;;;24.26;32.72;98906.41;4337002;33;33938;-91
2021/05/12 06:58:10;;;;;;;6.47;2.30;;;;;;;24.55;32.59;98907.88;4363048;32;33812;-92
2021/05/12 07:00:57;;;;;;;4.93;2.30;;;;;;;24.84;32.88;98903.16;4348976;33;32953;-91
2021/05/12 07:03:27;;;;;;;8.23;1.90;;;;;;;24.75;32.42;98909.94;4348543;32;33726;-92
2021/05/12 07:05:55;;;;;;;5.72;2.25;;;;;;;25.03;31.65;98910.66;4360708;32;34253;-91
2021/05/12 07:08:24;;;;;;;9.80;3.00;;;;;;;25.33;30.93;98906.59;4361712;32;34339;-92
2021/05/12 07:10:58;;;;;;;8.05;2.30;;;;;;;25.42;32.70;98913.88;4354044;32;34045;-90
2021/05/12 07:13:26;;;;;;;12.10;3.05;;;;;;;25.71;31.16;98908.22;4355370;33;33497;-89
2021/05/12 07:15:55;;;;;;;5.53;2.33;;;;;;;25.98;30.22;98906.13;4355826;32;34889;-89
2021/05/12 07:18:32;;;;;;;10.18;2.83;;;;;;;26.09;31.13;98901.66;4351413;32;34738;-90
2021/05/12 07:21:00;;;;;;;5.47;2.08;;;;;;;25.51;31.29;98896.41;4362869;32;33279;-91
2021/05/12 07:23:28;;;;;;;6.03;2.05;;;;;;;25.93;31.47;98898.47;4339630;33;33311;-92
2021/05/12 07:25:56;;;;;;;6.53;2.35;;;;;;;26.04;30.32;98898.50;4361295;32;35867;-90
2021/05/12 07:28:25;;;;;;;7.70;2.25;;;;;;;26.30;29.98;98898.31;4337116;33;34642;-91
2021/05/12 07:30:52;;;;;;;6.07;2.92;;;;;;;26.25;31.01;98900.47;4360640;32;32809;-91
2021/05/12 07:33:44;;;;;;;10.20;2.58;;;;;;;26.18;31.40;98908.97;4364112;32;35893;-90
2021/05/12 07:36:12;;;;;;;7.97;2.35;;;;;;;26.17;31.54;98906.44;4349725;33;33873;-89
2021/05/12 07:38:40;;;;;;;8.43;2.45;;;;;;;26.16;30.46;98897.59;4348592;32;34999;-90
2021/05/12 07:41:08;;;;;;;6.47;2.35;;;;;;;26.06;30.55;98893.91;4348840;33;33380;-91
2021/05/12 07:43:35;;;;;;;7.35;2.30;;;;;;;25.96;31.99;98892.91;4346562;33;33746;-90
2021/05/12 07:46:03;;;;;;;9.38;2.75;;;;;;;26.08;30.58;98889.28;4363676;32;34876;-90
2021/05/12 07:48:32;;;;;;;5.75;2.45;;;;;;;26.31;31.30;98892.03;4354401;32;34827;-91
2021/05/12 07:51:01;;;;;;;5.28;2.37;;;;;;;26.44;31.26;98888.25;4376038;32;33795;-90
2021/05/12 07:53:58;;;;;;;9.68;2.62;;;;;;;26.03;31.95;98882.63;4362330;32;34811;-90
2021/05/12 07:56:26;;;;;;;7.90;2.50;;;;;;;26.16;30.80;98884.25;4351015;32;36001;-91
2021/05/12 07:58:54;;;;;;;5.85;2.50;;;;;;;26.18;30.53;98874.31;4349183;33;33498;-89
2021/05/12 08:01:27;;;;;;;8.18;2.67;;;;;;;26.42;30.08;98879.53;4351487;33;33259;-89
2021/05/12 08:03:55;;;;;;;9.88;3.22;;;;;;;26.33;30.24;98871.41;4340264;33;33511;-89
2021/05/12 08:06:23;;;;;;;4.78;2.42;;;;;;;26.27;31.21;98866.59;4352718;33;33921;-89
2021/05/12 08:08:54;;;;;;;13.32;2.83;;;;;;;25.94;31.49;98859.34;4340141;33;33550;-89
2021/05/12 08:11:22;;;;;;;8.77;2.60;;;;;;;26.08;31.14;98846.66;4346618;32;32933;-90
2021/05/12 08:13:50;;;;;;;8.60;2.50;;;;;;;26.01;31.62;98844.59;4373845;32;35258;-89
2021/05/12 08:16:18;;;;;;;5.05;2.62;;;;;;;26.15;31.75;98839.91;4362757;32;34979;-90
2021/05/12 08:18:46;;;;;;;11.73;2.47;;;;;;;26.19;31.38;98841.38;4353058;32;34336;-89
2021/05/12 08:21:14;;;;;;;8.18;2.42;;;;;;;26.37;31.33;98844.38;4348633;33;32902;-90
2021/05/12 08:23:42;;;;;;;8.60;2.30;;;;;;;26.64;30.88;98852.88;4350789;32;33673;-90
2021/05/12 08:26:10;;;;;;;8.00;2.33;;;;;;;26.42;31.49;98852.88;4349861;33;34463;-91
2021/05/12 08:28:40;;;;;;;7.78;3.42;;;;;;;26.52;30.46;98853.84;4361080;32;33342;-91
2021/05/12 08:31:08;;;;;;;9.82;2.90;;;;;;;26.83;29.74;98846.91;4360575;32;32900;-89
2021/05/12 08:33:36;;;;;;;12.23;2.72;;;;;;;26.64;29.99;98852.88;4351860;32;34222;-92
2021/05/12 08:36:04;;;;;;;8.73;3.05;;;;;;;26.70;29.52;98847.03;4361318;32;34592;-91
2021/05/12 08:38:33;;;;;;;9.93;2.85;;;;;;;26.96;29.90;98857.44;4348694;33;34355;-90
2021/05/12 08:41:02;;;;;;;7.82;2.97;;;;;;;26.93;29.22;98855.00;4336866;33;32944;-90
2021/05/12 08:43:31;;;;;;;11.00;2.95;;;;;;;26.70;29.88;98854.16;4348877;32;33523;-89
2021/05/12 08:45:59;;;;;;;8.85;3.10;;;;;;;26.96;29.55;98862.78;4360548;32;35691;-91
2021/05/12 08:48:32;;;;;;;8.63;2.65;;;;;;;27.05;29.70;98859.34;4348874;32;35486;-89
2021/05/12 08:51:01;;;;;;;7.62;2.55;;;;;;;27.14;28.96;98854.09;4372340;32;34664;-86
2021/05/12 08:53:28;;;;;;;6.47;2.70;;;;;;;27.31;29.28;98858.06;4360263;32;34055;-86
2021/05/12 08:55:58;;;;;;;9.70;2.62;;;;;;;27.45;28.84;98853.28;4347855;33;34142;-84
2021/05/12 08:58:26;;;;;;;9.48;2.60;;;;;;;27.30;28.90;98843.00;4360104;32;35337;-84
2021/05/12 09:00:54;;;;;;;9.77;2.28;;;;;;;27.30;28.60;98843.00;4359323;32;33465;-84
2021/05/12 09:03:26;;;;;;;8.70;2.25;;;;;;;27.36;29.47;98845.16;4347853;32;33780;-84
2021/05/12 09:05:58;;;;;;;13.23;3.05;;;;;;;27.44;28.80;98837.38;4359856;32;34402;-80
2021/05/12 09:08:29;;;;;;;10.63;2.83;;;;;;;27.15;29.76;98837.09;4347453;33;34127;-81
2021/05/12 09:10:57;;;;;;;10.65;2.72;;;;;;;27.15;29.58;98831.75;4351664;32;33064;-80
2021/05/12 09:13:36;;;;;;;12.95;3.00;;;;;;;27.25;29.80;98831.84;4359275;32;34020;-81
2021/05/12 09:16:27;;;;;;;11.63;2.67;;;;;;;27.38;29.33;98832.56;4359008;32;36274;-81
2021/05/12 09:19:10;;;;;;;9.07;2.80;;;;;;;27.53;28.36;98831.25;4358930;32;34221;-81
2021/05/12 09:21:44;;;;;;;13.57;3.28;;;;;;;27.68;27.95;98837.97;4355792;32;33977;-81
2021/05/12 09:24:19;;;;;;;8.32;2.62;;;;;;;27.44;27.98;98824.88;4348103;33;34485;-81
2021/05/12 09:26:48;;;;;;;9.63;2.83;;;;;;;27.48;28.40;98823.62;4347789;33;35790;-81
2021/05/12 09:29:22;;;;;;;8.77;2.60;;;;;;;27.58;28.22;98812.16;4359282;32;35657;-81
2021/05/12 09:31:50;;;;;;;11.12;2.90;;;;;;;27.32;28.45;98812.53;4347785;33;33572;-81
2021/05/12 09:34:19;;;;;;;6.80;2.62;;;;;;;27.19;28.40;98809.19;4353504;32;33801;-81
2021/05/12 09:36:46;;;;;;;7.37;2.87;;;;;;;27.15;28.49;98813.06;4347724;33;35799;-81
2021/05/12 09:39:15;;;;;;;7.55;2.60;;;;;;;27.10;28.28;98811.78;4358499;32;34030;-80
2021/05/12 09:41:43;;;;;;;7.95;2.80;;;;;;;27.15;28.28;98814.88;4347389;33;34035;-80
2021/05/12 09:44:11;;;;;;;7.10;2.70;;;;;;;26.97;28.13;98819.94;4341947;33;33809;-80
2021/05/12 09:46:40;;;;;;;11.05;3.12;;;;;;;27.02;28.07;98820.41;4347406;33;35038;-81
2021/05/12 09:49:12;;;;;;;8.77;2.80;;;;;;;27.26;28.31;98821.06;4347504;33;35254;-80
2021/05/12 09:51:42;;;;;;;10.38;2.90;;;;;;;27.31;27.87;98831.34;4346210;33;33997;-81
2021/05/12 09:54:14;;;;;;;11.60;3.33;;;;;;;27.17;28.08;98839.66;4347549;33;34427;-81
2021/05/12 09:56:56;;;;;;;6.85;2.85;;;;;;;27.05;27.97;98830.00;4347824;33;34570;-81
2021/05/12 09:59:34;;;;;;;6.05;2.70;;;;;;;27.21;27.62;98827.75;4358497;32;34466;-81
2021/05/12 10:02:03;;;;;;;6.93;2.60;;;;;;;26.97;28.25;98832.44;4345918;33;34566;-80
2021/05/12 10:07:25;;;;;;;8.38;2.70;;;;;;;26.94;28.27;98838.88;4353924;32;35316;-80
2021/05/12 10:09:54;;;;;;;6.47;2.78;;;;;;;26.96;28.25;98836.91;4347573;33;33995;-80
2021/05/12 10:12:27;;;;;;;7.97;2.55;;;;;;;26.98;28.04;98837.63;4346668;33;33419;-81
2021/05/12 10:14:57;;;;;;;17.23;3.97;;;;;;;27.07;27.81;98836.06;4354103;32;33810;-81
2021/05/12 10:17:26;;;;;;;12.07;3.10;;;;;;;27.11;28.25;98835.66;4371421;32;35266;-81
2021/05/12 10:19:55;;;;;;;7.45;2.78;;;;;;;27.26;27.88;98833.56;4346997;33;34017;-82
2021/05/12 10:22:23;;;;;;;8.93;2.55;;;;;;;27.42;27.37;98829.50;4358456;32;34547;-82
2021/05/12 10:24:54;;;;;;;6.70;3.10;;;;;;;27.59;27.66;98829.91;4346728;33;35090;-82
2021/05/12 10:27:25;;;;;;;8.63;2.77;;;;;;;27.58;28.44;98834.37;4357989;32;34506;-81
2021/05/12 10:29:55;;;;;;;6.87;3.00;;;;;;;27.76;28.53;98826.63;4358848;32;34693;-82
2021/05/12 10:32:29;;;;;;;10.55;3.10;;;;;;;27.88;29.03;98828.25;4346247;32;34581;-82
2021/05/12 10:35:05;;;;;;;8.60;2.67;;;;;;;27.64;32.80;98827.69;4348047;32;33841;-82
2021/05/12 10:37:53;;;;;;;7.30;2.97;;;;;;;27.57;34.34;98831.84;4370471;32;34607;-81
2021/05/12 10:40:31;;;;;;;6.07;2.67;;;;;;;27.52;34.61;98830.44;4347722;33;34251;-82
2021/05/12 10:45:53;;;;;;;8.38;3.67;;;;;;;27.43;34.20;98822.34;4346187;33;33927;-81
2021/05/12 10:48:39;;;;;;;;;;;;;;;27.25;35.79;98838.03;4358943;32;34384;-81
2021/05/12 10:51:09;;;;;;;8.75;3.97;;;;;;;27.03;36.23;98832.78;4347412;33;34683;-81
2021/05/12 10:53:46;;;;;;;7.10;4.20;;;;;;;27.14;36.15;98845.25;4346641;32;33467;-82
2021/05/12 10:56:14;;;;;;;12.60;4.95;;;;;;;26.72;36.69;98842.41;4344826;33;33739;-81
2021/05/12 10:59:05;;;;;;;6.43;4.40;;;;;;;26.47;37.43;98839.16;4352789;32;34364;-81
2021/05/12 11:01:43;;;;;;;10.30;5.40;;;;;;;26.46;37.49;98829.50;4346220;33;33808;-81
2021/05/12 11:04:19;;;;;;;10.07;6.00;;;;;;;26.28;38.30;98833.59;4347561;33;34704;-81
2021/05/12 11:06:50;;;;;;;10.65;7.07;;;;;;;26.08;38.40;98841.31;4346173;33;34619;-82
2021/05/12 11:09:20;;;;;;;12.68;7.15;;;;;;;26.14;37.78;98832.91;4347253;33;35796;-81
2021/05/12 11:11:51;;;;;;;10.73;7.15;;;;;;;25.92;38.58;98827.50;4346228;32;34198;-81
2021/05/12 11:14:21;;;;;;;10.57;7.53;;;;;;;25.69;39.19;98831.12;4345609;33;32777;-81
2021/05/12 11:17:09;;;;;;;10.40;7.43;;;;;;;25.46;39.54;98818.69;4358285;32;34651;-81
2021/05/12 11:19:40;;;;;;;9.57;7.00;;;;;;;24.81;41.13;98821.78;4358282;32;34465;-80
2021/05/12 11:25:32;;;;;;;11.05;6.10;;;;;;;25.19;40.79;98815.44;4358115;32;34181;-81
2021/05/12 11:33:23;;;;;;;11.48;6.12;;;;;;;24.68;42.39;98794.34;4347357;33;34554;-81
2021/05/12 11:35:56;;;;;;;6.97;6.00;;;;;;;24.68;43.15;98804.13;4348061;33;33353;-80
2021/05/12 11:38:25;;;;;;;10.25;6.50;;;;;;;24.51;44.31;98797.37;4347537;33;33796;-81
2021/05/12 11:40:58;;;;;;;9.55;5.72;;;;;;;24.52;44.26;98783.16;4347224;33;34374;-81
2021/05/12 11:43:37;;;;;;;10.07;6.50;;;;;;;24.61;44.29;98779.81;4347058;33;33853;-82
2021/05/12 11:46:06;;;;;;;11.75;6.93;;;;;;;24.35;44.83;98780.87;4370602;32;33413;-82
2021/05/12 11:48:39;;;;;;;13.30;8.95;;;;;;;24.38;45.88;98793.94;4357194;32;33836;-82
2021/05/12 11:51:07;;;;;;;14.38;8.77;;;;;;;24.01;48.41;98808.12;4358135;32;34727;-81
2021/05/12 11:53:39;;;;;;;14.40;10.15;;;;;;;23.57;50.23;98829.75;4346770;33;33674;-81
2021/05/12 11:56:07;;;;;;;14.48;11.00;;;;;;;23.19;51.18;98834.97;4358297;32;33718;-82
2021/05/12 11:58:37;;;;;;;17.15;11.48;;;;;;;23.35;51.31;98840.97;4345986;33;34079;-82
2021/05/12 12:01:07;;;;;;;15.05;12.82;;;;;;;23.11;51.27;98847.03;4347003;33;35249;-81
2021/05/12 12:03:55;;;;;;;21.37;15.93;;;;;;;22.51;53.38;98841.22;4335122;33;34524;-81
2021/05/12 12:06:23;;;;;;;54.33;31.95;;;;;;;22.55;53.26;98837.41;4356941;32;32962;-82
2021/05/12 12:08:51;;;;;;;31.87;17.98;;;;;;;22.45;55.08;98846.91;4346531;33;34172;-83
2021/05/12 12:11:19;;;;;;;19.98;12.88;;;;;;;22.56;55.17;98855.88;4345969;33;36026;-84
2021/05/12 12:13:57;;;;;;;26.37;17.50;;;;;;;22.63;54.84;98856.38;4358542;32;33768;-86
2021/05/12 12:16:25;;;;;;;22.33;15.68;;;;;;;22.52;56.66;98837.59;4346364;32;33939;-86
2021/05/12 12:18:55;;;;;;;36.38;18.67;;;;;;;22.21;57.12;98847.50;4346293;33;34071;-86
2021/05/12 12:21:28;;;;;;;21.98;15.13;;;;;;;22.40;55.24;98843.69;4346183;33;34504;-84